CUQ weather

Coen Airport
Coen, Queensland, Australia

Public forecast

Using degrees Celsius for public forecast. Weather courtesy of forecast.io.

METAR (pilot weather report)

Closest report is Weipa Airport, 95.1 nm (176.2 km) NW. Retrieved 2019/03/26 06:00 UTC (11 minutes ago):

YBWP 260600Z AUTO 31009KT 9999 // SCT023 BKN110 31/26 Q1008

TAF (pilot weather forecast)

Forecast is more than 6 hours old.

Closest forecast is Gove Airport, 379.0 nm (701.9 km) WNW. Retrieved 2019/03/25 20:00 UTC (10 hours ago):

TAF YPGV 251821Z 2520/2608 35007KT 9999 SCT020 TEMPO 2600/2606 VRB20G35KT 1000 TSRA BKN010 SCT020CB